createdAt,value
2017-07-24T00:00:48.863Z,70.60
2017-07-24T00:03:15.047Z,70.60
2017-07-24T00:05:41.151Z,70.60
2017-07-24T00:08:08.070Z,71.20
2017-07-24T00:10:34.171Z,71.20
2017-07-24T00:13:00.402Z,70.90
2017-07-24T00:15:26.530Z,71.20
2017-07-24T00:17:52.750Z,71.60
2017-07-24T00:20:18.862Z,71.70
2017-07-24T00:22:44.998Z,71.70
2017-07-24T00:25:11.206Z,71.90
2017-07-24T00:27:37.396Z,71.90
2017-07-24T00:30:03.512Z,71.80
2017-07-24T00:32:29.655Z,71.40
2017-07-24T00:34:55.783Z,71.70
2017-07-24T00:37:21.934Z,71.60
2017-07-24T00:39:49.159Z,71.60
2017-07-24T00:42:15.360Z,71.60
2017-07-24T00:44:41.480Z,71.70
2017-07-24T00:47:07.606Z,71.90
2017-07-24T00:49:33.716Z,72.20
2017-07-24T00:51:59.874Z,72.40
2017-07-24T00:54:26.051Z,72.60
2017-07-24T00:56:52.174Z,72.90
2017-07-24T00:59:18.306Z,73.20
2017-07-24T01:01:44.450Z,73.20
2017-07-24T01:04:10.597Z,73.60
2017-07-24T01:06:36.712Z,73.70
2017-07-24T01:09:02.890Z,73.40
2017-07-24T01:11:29.914Z,73.90
2017-07-24T01:13:56.070Z,73.80
2017-07-24T01:16:22.960Z,73.80
2017-07-24T01:18:49.110Z,73.70
2017-07-24T01:21:15.229Z,73.80
2017-07-24T01:23:41.519Z,73.30
2017-07-24T01:26:07.642Z,73.40
2017-07-24T01:28:33.778Z,72.90
2017-07-24T01:30:59.988Z,73.40
2017-07-24T01:33:26.134Z,74.20
2017-07-24T01:35:52.290Z,73.70
2017-07-24T01:38:18.435Z,73.50
2017-07-24T01:40:45.359Z,73.10
2017-07-24T01:43:11.506Z,73.50
2017-07-24T01:45:38.375Z,73.80
2017-07-24T01:48:04.540Z,73.50
2017-07-24T01:50:30.675Z,73.80
2017-07-24T01:52:56.863Z,74.00
2017-07-24T01:55:22.986Z,74.20
2017-07-24T01:57:49.123Z,73.80
2017-07-24T02:00:15.252Z,73.80
2017-07-24T02:02:41.590Z,73.90
2017-07-24T02:05:07.728Z,73.70
2017-07-24T02:07:33.875Z,73.60
2017-07-24T02:09:59.998Z,73.60
2017-07-24T02:12:26.121Z,73.70
2017-07-24T02:14:52.394Z,73.30
2017-07-24T02:17:18.518Z,73.90
2017-07-24T02:19:44.687Z,73.90
2017-07-24T02:22:10.825Z,73.80
2017-07-24T02:24:37.018Z,74.60
2017-07-24T02:27:03.162Z,74.00
2017-07-24T02:29:29.296Z,74.50
2017-07-24T02:31:55.450Z,74.50
2017-07-24T02:34:22.378Z,74.30
2017-07-24T02:36:48.504Z,74.20
2017-07-24T02:39:14.667Z,74.00
2017-07-24T02:41:41.572Z,74.40
2017-07-24T02:44:07.755Z,74.30
2017-07-24T02:46:33.891Z,74.40
2017-07-24T02:49:00.039Z,74.10
2017-07-24T02:51:26.175Z,74.10
2017-07-24T02:53:52.307Z,74.40
2017-07-24T02:56:18.435Z,74.70
2017-07-24T02:58:44.629Z,74.80
2017-07-24T03:01:10.787Z,74.30
2017-07-24T03:03:36.915Z,74.40
2017-07-24T03:06:03.051Z,74.30
2017-07-24T03:08:29.398Z,74.10
2017-07-24T03:10:55.534Z,73.90
2017-07-24T03:13:21.678Z,74.10
2017-07-24T03:15:47.811Z,74.10
2017-07-24T03:18:13.975Z,74.10
2017-07-24T03:20:40.113Z,74.30
2017-07-24T03:23:06.998Z,74.40
2017-07-24T03:25:33.363Z,74.80
2017-07-24T03:27:59.540Z,74.80
2017-07-24T03:30:26.397Z,75.40
2017-07-24T03:32:52.551Z,75.40
2017-07-24T03:35:18.686Z,75.30
2017-07-24T03:37:44.834Z,76.00
2017-07-24T03:40:11.059Z,75.60
2017-07-24T03:42:37.199Z,75.90
2017-07-24T03:45:03.330Z,75.90
2017-07-24T03:47:30.282Z,76.50
2017-07-24T03:49:57.160Z,76.90
2017-07-24T03:52:23.327Z,76.90
2017-07-24T03:54:49.442Z,77.20
2017-07-24T03:57:15.590Z,77.00
2017-07-24T03:59:41.735Z,76.80
2017-07-24T04:02:07.892Z,76.70
2017-07-24T04:04:34.026Z,76.30
2017-07-24T04:07:00.209Z,76.40
2017-07-24T04:09:26.350Z,76.20
2017-07-24T04:11:52.538Z,76.10
2017-07-24T04:14:18.766Z,76.00
2017-07-24T04:16:44.894Z,76.10
2017-07-24T04:19:11.043Z,75.80
2017-07-24T04:21:37.920Z,76.50
2017-07-24T04:24:04.075Z,76.40
2017-07-24T04:26:30.206Z,77.00
2017-07-24T04:28:56.339Z,76.90
2017-07-24T04:31:22.595Z,77.00
2017-07-24T04:33:48.765Z,76.90
2017-07-24T04:36:14.891Z,76.80
2017-07-24T04:38:41.183Z,76.90
2017-07-24T04:41:08.035Z,76.50
2017-07-24T04:43:34.160Z,76.40
2017-07-24T04:46:00.476Z,76.50
2017-07-24T04:48:27.350Z,76.30
2017-07-24T04:50:53.487Z,76.30
2017-07-24T04:53:19.631Z,76.20
2017-07-24T04:55:45.784Z,76.00
2017-07-24T04:58:11.922Z,76.00
2017-07-24T05:00:38.092Z,75.90
2017-07-24T05:03:04.240Z,75.60
2017-07-24T05:05:30.376Z,74.90
2017-07-24T05:07:56.627Z,74.90
2017-07-24T05:10:22.758Z,74.50
2017-07-24T05:12:48.883Z,74.00
2017-07-24T05:15:15.037Z,73.80
2017-07-24T05:17:41.162Z,72.20
2017-07-24T05:20:07.323Z,71.40
2017-07-24T05:22:33.443Z,71.00
2017-07-24T05:24:59.711Z,71.10
2017-07-24T05:27:26.567Z,69.00
2017-07-24T05:29:53.623Z,67.90
2017-07-24T05:32:19.771Z,67.90
2017-07-24T05:34:45.962Z,67.90
2017-07-24T05:37:12.086Z,67.60
2017-07-24T05:39:38.316Z,66.50
2017-07-24T05:42:05.181Z,66.00
2017-07-24T05:44:31.339Z,66.00
2017-07-24T05:46:57.459Z,65.00
2017-07-24T05:49:23.734Z,64.80
2017-07-24T05:51:50.599Z,64.30
2017-07-24T05:54:16.732Z,64.00
2017-07-24T05:56:42.855Z,63.70
2017-07-24T05:59:08.990Z,63.50
2017-07-24T06:01:35.115Z,62.50
2017-07-24T06:04:01.479Z,62.40
2017-07-24T06:06:27.615Z,62.90
2017-07-24T06:08:53.754Z,62.50
2017-07-24T06:11:20.091Z,61.10
2017-07-24T06:13:46.220Z,62.30
2017-07-24T06:16:13.092Z,62.30
2017-07-24T06:18:39.247Z,61.80
2017-07-24T06:21:05.380Z,60.40
2017-07-24T06:23:32.467Z,60.50
2017-07-24T06:25:59.493Z,60.50
2017-07-24T06:28:25.630Z,59.70
2017-07-24T06:30:51.916Z,57.10
2017-07-24T06:33:18.056Z,57.30
2017-07-24T06:35:44.161Z,56.30
2017-07-24T06:38:10.310Z,57.50
2017-07-24T06:40:36.515Z,56.30
2017-07-24T06:43:02.626Z,58.10
2017-07-24T06:45:28.957Z,58.40
2017-07-24T06:47:55.198Z,57.10
2017-07-24T06:50:21.754Z,58.30
2017-07-24T06:52:47.962Z,58.10
2017-07-24T06:55:14.102Z,57.90
2017-07-24T06:57:40.228Z,57.30
2017-07-24T07:00:06.504Z,56.10
2017-07-24T07:02:33.371Z,56.90
2017-07-24T07:04:59.494Z,56.60
2017-07-24T07:07:25.619Z,57.20
2017-07-24T07:09:51.870Z,57.30
2017-07-24T07:12:17.990Z,58.20
2017-07-24T07:14:44.134Z,57.20
2017-07-24T07:17:10.390Z,56.70
2017-07-24T07:19:36.575Z,55.40
2017-07-24T07:22:02.726Z,55.80
2017-07-24T07:24:28.915Z,56.70
2017-07-24T07:26:55.107Z,55.00
2017-07-24T07:29:21.347Z,54.50
2017-07-24T07:31:48.202Z,56.40
2017-07-24T07:34:15.095Z,55.00
2017-07-24T07:36:41.292Z,54.80
2017-07-24T07:39:08.623Z,54.80
2017-07-24T07:41:34.830Z,54.50
2017-07-24T07:44:01.058Z,54.10
2017-07-24T07:46:27.295Z,54.80
2017-07-24T07:48:53.510Z,53.70
2017-07-24T07:51:19.747Z,53.50
2017-07-24T07:53:45.966Z,52.50
2017-07-24T07:56:12.207Z,51.70
2017-07-24T07:58:38.421Z,51.80
2017-07-24T08:01:04.686Z,52.00
2017-07-24T08:03:31.543Z,50.80
2017-07-24T08:05:57.714Z,51.30
2017-07-24T08:08:23.834Z,49.60
2017-07-24T08:10:50.258Z,49.80
2017-07-24T08:13:16.411Z,49.50
2017-07-24T08:15:42.546Z,48.30
2017-07-24T08:18:08.707Z,48.80
2017-07-24T08:20:34.842Z,49.90
2017-07-24T08:23:00.994Z,50.80
2017-07-24T08:25:27.139Z,50.20
2017-07-24T08:27:53.254Z,50.50
2017-07-24T08:30:19.394Z,50.50
2017-07-24T08:32:45.544Z,50.90
2017-07-24T08:35:12.421Z,49.10
2017-07-24T08:37:38.543Z,49.00
2017-07-24T08:40:04.700Z,49.10
2017-07-24T08:42:30.836Z,49.30
2017-07-24T08:44:56.978Z,49.60
2017-07-24T08:47:23.127Z,47.60
2017-07-24T08:49:49.342Z,48.40
2017-07-24T08:52:16.283Z,49.40
2017-07-24T08:54:42.483Z,49.40
2017-07-24T08:57:08.626Z,49.80
2017-07-24T08:59:34.767Z,49.80
2017-07-24T09:02:01.646Z,49.70
2017-07-24T09:04:27.779Z,49.70
2017-07-24T09:06:53.983Z,49.80
2017-07-24T09:09:20.123Z,51.80
2017-07-24T09:11:46.247Z,50.50
2017-07-24T09:14:12.373Z,51.30
2017-07-24T09:16:38.507Z,53.10
2017-07-24T09:19:04.651Z,57.50
2017-07-24T09:21:30.778Z,58.70
2017-07-24T09:23:56.896Z,56.90
2017-07-24T09:26:23.033Z,57.40
2017-07-24T09:28:49.145Z,58.20
2017-07-24T09:31:15.275Z,58.90
2017-07-24T09:33:43.611Z,58.90
2017-07-24T09:36:14.218Z,59.50
2017-07-24T09:38:41.087Z,63.70
2017-07-24T09:41:07.252Z,63.70
2017-07-24T09:43:33.394Z,63.40
2017-07-24T09:45:59.560Z,64.90
2017-07-24T09:48:25.703Z,64.20
2017-07-24T09:50:51.818Z,63.90
2017-07-24T09:53:18.684Z,65.30
2017-07-24T09:55:44.798Z,65.30
2017-07-24T09:58:10.955Z,66.20
2017-07-24T10:00:37.078Z,66.60
2017-07-24T10:03:03.218Z,69.20
2017-07-24T10:05:29.363Z,68.40
2017-07-24T10:07:55.511Z,70.30
2017-07-24T10:10:21.807Z,71.10
2017-07-24T10:12:47.950Z,70.60
2017-07-24T10:15:14.827Z,71.90
2017-07-24T10:17:40.954Z,71.80
2017-07-24T10:20:07.103Z,73.10
2017-07-24T10:22:33.224Z,73.70
2017-07-24T10:24:59.395Z,73.20
2017-07-24T10:27:25.539Z,74.60
2017-07-24T10:29:52.410Z,75.70
2017-07-24T10:32:18.651Z,75.60
2017-07-24T10:34:44.811Z,75.60
2017-07-24T10:37:10.934Z,75.90
2017-07-24T10:39:37.119Z,75.70
2017-07-24T10:42:03.235Z,76.90
2017-07-24T10:44:29.378Z,77.90
2017-07-24T10:46:55.498Z,79.60
2017-07-24T10:49:21.661Z,79.10
2017-07-24T10:51:47.774Z,78.90
2017-07-24T10:54:13.918Z,78.00
2017-07-24T10:56:40.043Z,78.00
2017-07-24T10:59:06.202Z,79.20
2017-07-24T11:01:32.342Z,78.40
2017-07-24T11:03:58.498Z,78.70
2017-07-24T11:06:24.625Z,79.00
2017-07-24T11:08:50.860Z,81.30
2017-07-24T11:11:17.002Z,78.90
2017-07-24T11:13:43.140Z,79.90
2017-07-24T11:16:09.302Z,78.90
2017-07-24T11:18:35.438Z,79.50
2017-07-24T11:21:01.585Z,79.60
2017-07-24T11:23:27.714Z,79.30
2017-07-24T11:25:53.845Z,80.90
2017-07-24T11:28:19.988Z,81.90
2017-07-24T11:30:46.118Z,80.40
2017-07-24T11:33:12.251Z,81.00
2017-07-24T11:35:38.366Z,81.70
2017-07-24T11:38:04.535Z,82.90
2017-07-24T11:40:30.650Z,81.40
2017-07-24T11:42:57.539Z,84.10
2017-07-24T11:45:23.679Z,84.10
2017-07-24T11:47:49.870Z,81.50
2017-07-24T11:50:16.015Z,81.10
2017-07-24T11:52:42.199Z,82.20
2017-07-24T11:55:08.307Z,81.50
2017-07-24T11:57:34.546Z,80.00
2017-07-24T12:00:00.688Z,79.50
2017-07-24T12:02:26.851Z,80.80
2017-07-24T12:04:52.993Z,80.30
2017-07-24T12:07:19.167Z,81.80
2017-07-24T12:09:45.329Z,82.40
2017-07-24T12:12:11.460Z,86.20
2017-07-24T12:14:37.627Z,83.70
2017-07-24T12:17:04.523Z,79.80
2017-07-24T12:19:30.640Z,79.80
2017-07-24T12:21:56.906Z,80.70
2017-07-24T12:24:23.058Z,81.80
2017-07-24T12:26:49.290Z,80.20
2017-07-24T12:29:15.460Z,79.50
2017-07-24T12:31:41.583Z,79.50
2017-07-24T12:34:07.772Z,79.10
2017-07-24T12:36:33.902Z,81.20
2017-07-24T12:39:00.078Z,82.80
2017-07-24T12:41:26.192Z,79.60
2017-07-24T12:43:52.341Z,79.50
2017-07-24T12:46:18.475Z,80.60
2017-07-24T12:48:44.618Z,80.00
2017-07-24T12:51:10.772Z,81.00
2017-07-24T12:53:36.977Z,81.20
2017-07-24T12:56:03.377Z,81.10
2017-07-24T12:58:29.558Z,80.70
2017-07-24T13:00:55.682Z,81.10
2017-07-24T13:03:21.832Z,80.80
2017-07-24T13:05:47.977Z,82.20
2017-07-24T13:08:14.131Z,81.70
2017-07-24T13:10:40.461Z,83.30
2017-07-24T13:13:06.626Z,82.40
2017-07-24T13:15:32.799Z,82.80
2017-07-24T13:17:58.951Z,82.40
2017-07-24T13:20:27.779Z,81.60
2017-07-24T13:22:54.101Z,80.50
2017-07-24T13:25:20.802Z,82.10
2017-07-24T13:27:47.213Z,79.70
2017-07-24T13:30:14.139Z,79.50
2017-07-24T13:32:40.398Z,79.40
2017-07-24T13:35:06.551Z,79.10
2017-07-24T13:37:33.476Z,79.80
2017-07-24T13:39:59.601Z,79.90
2017-07-24T13:42:25.795Z,80.50
2017-07-24T13:44:51.966Z,79.90
2017-07-24T13:47:18.815Z,80.20
2017-07-24T13:49:45.666Z,81.60
2017-07-24T13:52:12.545Z,82.20
2017-07-24T13:54:38.727Z,82.20
2017-07-24T13:57:05.620Z,82.20
2017-07-24T13:59:31.746Z,82.20
2017-07-24T14:01:57.883Z,82.40
2017-07-24T14:04:24.019Z,82.10
2017-07-24T14:06:50.153Z,80.90
2017-07-24T14:09:16.335Z,80.20
2017-07-24T14:11:42.470Z,80.60
2017-07-24T14:14:08.929Z,81.20
2017-07-24T14:16:35.077Z,80.60
2017-07-24T14:19:01.211Z,80.50
2017-07-24T14:21:27.342Z,82.30
2017-07-24T14:23:54.274Z,82.90
2017-07-24T14:26:20.435Z,82.90
2017-07-24T14:28:46.574Z,83.10
2017-07-24T14:31:12.713Z,84.80
2017-07-24T14:33:38.818Z,83.50
2017-07-24T14:36:05.079Z,84.90
2017-07-24T14:38:31.584Z,84.10
2017-07-24T14:40:57.726Z,85.70
2017-07-24T14:43:23.855Z,87.10
2017-07-24T14:45:50.094Z,85.10
2017-07-24T14:48:16.210Z,84.90
2017-07-24T14:50:42.347Z,84.60
2017-07-24T14:53:08.473Z,83.60
2017-07-24T14:55:34.625Z,83.20
2017-07-24T14:58:16.503Z,83.20
2017-07-24T15:00:42.755Z,83.20
2017-07-24T15:03:09.827Z,82.80
2017-07-24T15:05:35.954Z,82.80
2017-07-24T15:08:02.187Z,83.70
2017-07-24T15:10:28.446Z,83.10
2017-07-24T15:12:54.616Z,83.20
2017-07-24T15:15:21.388Z,83.40
2017-07-24T15:17:48.174Z,82.50
2017-07-24T15:20:14.410Z,83.70
2017-07-24T15:22:40.966Z,83.40
2017-07-24T15:25:07.988Z,83.30
2017-07-24T15:27:34.954Z,84.60
2017-07-24T15:30:01.066Z,84.40
2017-07-24T15:32:27.208Z,83.10
2017-07-24T15:34:53.335Z,82.00
2017-07-24T15:37:19.482Z,83.10
2017-07-24T15:39:45.628Z,83.70
2017-07-24T15:42:11.774Z,83.70
2017-07-24T15:44:37.891Z,83.90
2017-07-24T15:47:04.048Z,85.40
2017-07-24T15:49:30.161Z,85.50
2017-07-24T15:51:56.294Z,84.90
2017-07-24T15:54:22.422Z,85.40
2017-07-24T15:56:48.543Z,85.00
2017-07-24T15:59:14.704Z,84.60
2017-07-24T16:01:41.574Z,85.80
2017-07-24T16:04:07.695Z,85.70
2017-07-24T16:06:33.847Z,85.70
2017-07-24T16:08:59.971Z,85.70
2017-07-24T16:11:26.145Z,85.60
2017-07-24T16:13:53.166Z,85.80
2017-07-24T16:16:19.291Z,85.70
2017-07-24T16:18:45.404Z,85.30
2017-07-24T16:21:11.571Z,86.00
2017-07-24T16:23:38.430Z,86.20
2017-07-24T16:26:04.554Z,86.20
2017-07-24T16:28:30.685Z,85.90
2017-07-24T16:30:56.854Z,86.10
2017-07-24T16:33:22.992Z,84.60
2017-07-24T16:35:49.138Z,85.40
2017-07-24T16:38:16.010Z,85.10
2017-07-24T16:40:42.198Z,85.10
2017-07-24T16:43:08.319Z,86.30
2017-07-24T16:45:34.447Z,86.00
2017-07-24T16:48:00.606Z,85.60
2017-07-24T16:50:26.772Z,86.00
2017-07-24T16:52:52.923Z,86.50
2017-07-24T16:55:19.038Z,85.70
2017-07-24T16:57:45.212Z,85.50
2017-07-24T17:00:11.324Z,85.90
2017-07-24T17:02:37.560Z,85.80
2017-07-24T17:05:04.456Z,85.70
2017-07-24T17:07:30.607Z,85.70
2017-07-24T17:09:56.717Z,84.80
2017-07-24T17:12:22.843Z,85.60
2017-07-24T17:14:48.992Z,85.20
2017-07-24T17:17:15.867Z,84.40
2017-07-24T17:19:42.023Z,84.30
2017-07-24T17:22:08.899Z,85.60
2017-07-24T17:24:35.050Z,85.90
2017-07-24T17:27:01.192Z,85.50
2017-07-24T17:29:27.396Z,85.20
2017-07-24T17:31:53.513Z,85.20
2017-07-24T17:34:19.651Z,84.10
2017-07-24T17:36:45.787Z,83.70
2017-07-24T17:39:11.943Z,84.60
2017-07-24T17:41:38.119Z,84.70
2017-07-24T17:44:04.285Z,83.80
2017-07-24T17:46:30.418Z,84.60
2017-07-24T17:48:56.566Z,84.10
2017-07-24T17:51:22.707Z,84.70
2017-07-24T17:53:48.847Z,84.50
2017-07-24T17:56:15.754Z,84.70
2017-07-24T17:58:41.898Z,84.60
2017-07-24T18:01:08.043Z,85.20
2017-07-24T18:03:34.172Z,85.80
2017-07-24T18:06:00.322Z,85.60
2017-07-24T18:08:26.459Z,86.20
2017-07-24T18:10:52.634Z,86.40
2017-07-24T18:13:18.771Z,86.50
2017-07-24T18:15:44.887Z,86.70
2017-07-24T18:18:11.030Z,86.90
2017-07-24T18:20:37.944Z,87.30
2017-07-24T18:23:04.375Z,87.10
2017-07-24T18:25:30.676Z,87.40
2017-07-24T18:27:56.808Z,88.20
2017-07-24T18:30:22.955Z,87.70
2017-07-24T18:32:49.092Z,88.10
2017-07-24T18:35:15.211Z,88.20
2017-07-24T18:37:42.295Z,88.40
2017-07-24T18:40:09.169Z,88.60
2017-07-24T18:42:35.327Z,88.60
2017-07-24T18:45:01.451Z,89.00
2017-07-24T18:47:27.591Z,88.40
2017-07-24T18:49:53.712Z,88.40
2017-07-24T18:52:19.879Z,88.60
2017-07-24T18:54:46.768Z,89.50
2017-07-24T18:57:12.949Z,89.30
2017-07-24T18:59:39.838Z,89.30
2017-07-24T19:02:05.975Z,89.10
2017-07-24T19:04:32.094Z,89.00
2017-07-24T19:06:58.235Z,89.10
2017-07-24T19:09:24.387Z,88.70
2017-07-24T19:11:50.591Z,89.40
2017-07-24T19:14:16.864Z,89.40
2017-07-24T19:16:42.985Z,89.60
2017-07-24T19:19:09.126Z,89.50
2017-07-24T19:21:35.262Z,88.80
2017-07-24T19:24:01.396Z,89.40
2017-07-24T19:26:27.515Z,89.20
2017-07-24T19:28:53.659Z,89.30
2017-07-24T19:31:19.839Z,89.60
2017-07-24T19:33:45.967Z,89.70
2017-07-24T19:36:12.103Z,89.80
2017-07-24T19:38:38.243Z,90.00
2017-07-24T19:41:04.377Z,90.00
2017-07-24T19:43:30.510Z,89.60
2017-07-24T19:45:56.635Z,89.50
2017-07-24T19:48:22.784Z,89.30
2017-07-24T19:50:48.927Z,89.30
2017-07-24T19:53:15.791Z,89.60
2017-07-24T19:55:41.922Z,89.40
2017-07-24T19:58:08.083Z,89.20
2017-07-24T20:00:34.227Z,89.40
2017-07-24T20:03:00.359Z,89.70
2017-07-24T20:05:26.502Z,89.80
2017-07-24T20:07:53.363Z,90.20
2017-07-24T20:10:19.495Z,89.90
2017-07-24T20:12:45.620Z,90.10
2017-07-24T20:15:11.763Z,90.10
2017-07-24T20:17:38.005Z,90.10
2017-07-24T20:20:04.140Z,90.10
2017-07-24T20:22:30.503Z,90.20
2017-07-24T20:24:56.634Z,90.30
2017-07-24T20:27:22.796Z,90.40
2017-07-24T20:29:48.934Z,90.60
2017-07-24T20:32:15.115Z,90.50
2017-07-24T20:34:42.002Z,91.00
2017-07-24T20:37:08.107Z,90.70
2017-07-24T20:39:34.261Z,90.80
2017-07-24T20:42:00.381Z,90.60
2017-07-24T20:44:26.487Z,90.70
2017-07-24T20:46:52.612Z,90.60
2017-07-24T20:49:18.733Z,90.90
2017-07-24T20:51:45.604Z,90.70
2017-07-24T20:54:11.742Z,90.70
2017-07-24T20:56:37.938Z,90.80
2017-07-24T20:59:04.088Z,90.70
2017-07-24T21:01:30.277Z,90.60
2017-07-24T21:03:57.142Z,91.00
2017-07-24T21:06:23.283Z,90.90
2017-07-24T21:08:49.417Z,90.80
2017-07-24T21:11:15.581Z,90.60
2017-07-24T21:13:41.730Z,90.60
2017-07-24T21:16:08.620Z,90.40
2017-07-24T21:18:34.731Z,90.40
2017-07-24T21:21:00.859Z,90.40
2017-07-24T21:23:26.999Z,90.50
2017-07-24T21:25:53.103Z,90.40
2017-07-24T21:28:19.243Z,90.20
2017-07-24T21:30:45.377Z,90.20
2017-07-24T21:33:18.471Z,90.40
2017-07-24T21:35:44.598Z,90.10
2017-07-24T21:38:10.771Z,90.30
2017-07-24T21:40:37.727Z,90.40
2017-07-24T21:43:03.859Z,90.30
2017-07-24T21:45:30.010Z,90.50
2017-07-24T21:47:56.138Z,90.60
2017-07-24T21:50:22.286Z,90.60
2017-07-24T21:52:48.414Z,90.60
2017-07-24T21:55:14.580Z,90.50
2017-07-24T21:57:40.721Z,90.60
2017-07-24T22:00:06.854Z,90.60
2017-07-24T22:02:32.994Z,90.50
2017-07-24T22:04:59.127Z,90.50
2017-07-24T22:07:25.258Z,90.40
2017-07-24T22:09:51.430Z,90.30
2017-07-24T22:12:17.554Z,90.40
2017-07-24T22:14:44.411Z,90.50
2017-07-24T22:17:10.566Z,90.40
2017-07-24T22:19:37.659Z,90.50
2017-07-24T22:22:04.975Z,90.40
2017-07-24T22:24:31.123Z,90.40
2017-07-24T22:26:58.155Z,90.30
2017-07-24T22:29:24.294Z,90.30
2017-07-24T22:31:50.422Z,90.50
2017-07-24T22:34:16.631Z,90.40
2017-07-24T22:36:42.904Z,90.30
2017-07-24T22:39:09.774Z,90.30
2017-07-24T22:41:36.019Z,90.30
2017-07-24T22:44:02.147Z,90.50
2017-07-24T22:46:28.272Z,90.50
2017-07-24T22:48:54.391Z,90.40
2017-07-24T22:51:20.563Z,90.40
2017-07-24T22:53:46.748Z,90.40
2017-07-24T22:56:12.978Z,90.50
2017-07-24T22:58:39.190Z,90.50
2017-07-24T23:01:05.303Z,90.40
2017-07-24T23:03:31.428Z,90.40
2017-07-24T23:05:57.638Z,90.40
2017-07-24T23:08:23.759Z,90.40
2017-07-24T23:10:50.619Z,90.60
2017-07-24T23:13:16.776Z,90.40
2017-07-24T23:15:42.886Z,90.60
2017-07-24T23:18:09.314Z,90.30
2017-07-24T23:20:35.444Z,90.30
2017-07-24T23:23:01.662Z,90.20
2017-07-24T23:25:27.867Z,90.30
2017-07-24T23:27:54.134Z,90.60
2017-07-24T23:30:20.246Z,90.50
2017-07-24T23:32:46.378Z,90.20
2017-07-24T23:35:12.579Z,90.30
2017-07-24T23:37:38.736Z,90.40
2017-07-24T23:40:04.970Z,90.20
2017-07-24T23:42:31.106Z,90.40
2017-07-24T23:44:57.227Z,90.50
2017-07-24T23:47:23.367Z,90.60
2017-07-24T23:49:49.511Z,90.50
2017-07-24T23:52:16.436Z,90.30
2017-07-24T23:54:42.626Z,90.30
2017-07-24T23:57:08.853Z,90.40
2017-07-24T23:59:35.081Z,90.30
